Tropical Cyclones
[Index]
Main Index Home Page Stock Weather Photos Extreme Storms Discussion Storm News and Storm Chasing Reports Tropical Cyclones / Hurricanes / Typhoons Weather Data and Links Wild Fires / Bushfires Weather Observation Techniques Weather Picture Catalogue Tornado Pictures and Reports Stock Video Footage and DVDs for sale
Season 1955-1956 Tropical Cyclone 195556_05 Track Map
Season 1955-1956 Summaries: [BoM-AU] [JTWC-AU] [JTWC-SIO] [JTWC-SPAC] [JTWC-SH]
<<- Previous TC | BoM 1955-1956 Season | Next TC ->>

click for intensity scale information  Lat/long Grid: Show Hide

 Date Labels: Show Hide

Bureau of Meteorology Tropical Cyclone Data

Name: 195556_05
Number: 268 / 195556_05

15 Jan 1956 23:00 UTC to 27 Jan 1956 23:00 UTC

    date/time    lat    long    hPa   cat  kts
1956-01-15 23   15.0   140.0   1000                     
1956-01-16 22   17.5   139.7                            
1956-01-16 23   17.6   139.8    994    1                
1956-01-17 23   17.5   140.5    998                     
1956-01-18 05   17.5   140.8                            
1956-01-18 23   17.6   141.4    994    1                
1956-01-19 05   18.1   142.1    992    1                
1956-01-19 17   17.8   143.2    995    1                
1956-01-19 23   19.8   146.5    997                     
1956-01-20 02   20.2   147.5    996                     
1956-01-20 08   20.0   147.3    999                     
1956-01-20 11   20.1   148.3   1002                     
1956-01-20 15   20.1   148.4   1000                     
1956-01-20 17   19.0   149.0   1000                     
1956-01-20 23   19.0   150.0   1000                     
1956-01-21 02   18.5   150.0   1000                     
1956-01-21 05   18.0   151.0   1000                     
1956-01-21 11   18.0   151.0   1001                     
1956-01-21 23   19.0   152.0   1002                     
1956-01-22 05   19.1   151.3   1000                     
1956-01-22 17   18.0   149.5   1000                     
1956-01-22 23   17.5   149.4   1000                     
1956-01-23 05   17.0   149.5    998                     
1956-01-23 11   16.5   150.1    998                     
1956-01-23 23   17.2   151.5    998                     
1956-01-24 23   19.5   154.2    986    1                
1956-01-25 06   20.0   154.7                            
1956-01-25 23   22.2   157.0    968    3                
1956-01-26 23   26.5   161.0   1000                     
1956-01-27 23   29.9   160.2    996                     
Winds are 10-min average.

Tropical cyclone tracks developed by Michael Bath using data from the Bureau of Meteorology and Google Maps.


[Australian Severe Weather index] [Copyright Notice] [Email Contacts] [Search This Site] [Privacy Policy]
Document: tropical_cyclone_195556_05.htm Updated: 30 May 2013